Hauptseite
METAR-TAF:

METAR-TAF

Flughäfen :

London-Southend, England

London Southend Airport

Breite: 51-34N, Länge: 000-42E, Höhe: 15 m

Beobachtung

Neuester Wetterbericht von vor 33 Minuten, um 09:20 UTC
Windstille
Temperatur 22°C
Luftfeuchtigkeit 53%
Luftdruck 1024 hPa
Sichtweite 10 km oder mehr
keine Wolken unter 1500 m und keine Kumulonimbus oder Gewitterwolken

METAR: EGMC 190920Z 00000KT CAVOK 22/12 Q1024

Zeit: 10:53 (09:53 UTC)

Prognose

Neuester Wetterbericht von vor 1 Stunde und 57 Minuten, um 07:56 UTC
Gültige Prognose vom 19 um 09 UTC bis 19 um 18 UTC
Wind 5 kt aus Ost
Sichtweite: 5000 m
trockener Dunst
Übergehend zu
vom 19 um 09 UTC bis 19 um 12 UTC
Sichtweite 10 km oder mehr

TAF: EGMC 190756Z 1909/1918 08005KT 5000 HZ NSC BECMG 1909/1912 9999 NSW

Wetterbeobachtungen und Prognosen von mehr als 4000 Flughäfen (METAR und TAF Bericht).

Die verfügbaren Stationen werden durch gelbe und rote Markierungen auf der Karte dargestellt.

Führen Sie die Maus auf sie, um den Namen der Station zu sehen.

Darauf klicken, um die Beobachtung von Wetterbeobachtungen und Prognosen zu sehen.

Um die Karte zu ändern : klicken Sie auf den grünen Tasten mit einem schwarzen Kreuz Zum Vergrößern, auf den grünen Button mit einem Gedankenstrich zu verkleinern, oder auf die grünen Pfeile für benachbarte Karten.


METAR-TAF: